sensor_id;sensor_type;location;lat;lon;timestamp;P1;durP1;ratioP1;P2;durP2;ratioP2
33826;SDS011;20128;45.582;5.298;2024-01-25T00:00:51;13.70;;;5.78;;
33826;SDS011;20128;45.582;5.298;2024-01-25T00:03:16;16.45;;;6.47;;
33826;SDS011;20128;45.582;5.298;2024-01-25T00:05:43;16.33;;;6.78;;
33826;SDS011;20128;45.582;5.298;2024-01-25T00:08:08;15.18;;;6.70;;
33826;SDS011;20128;45.582;5.298;2024-01-25T00:10:34;14.52;;;6.00;;
33826;SDS011;20128;45.582;5.298;2024-01-25T00:12:59;24.33;;;8.38;;
33826;SDS011;20128;45.582;5.298;2024-01-25T00:15:26;22.02;;;9.23;;
33826;SDS011;20128;45.582;5.298;2024-01-25T00:17:52;20.80;;;9.00;;
33826;SDS011;20128;45.582;5.298;2024-01-25T00:20:17;17.17;;;8.27;;
33826;SDS011;20128;45.582;5.298;2024-01-25T00:22:43;15.52;;;7.68;;
33826;SDS011;20128;45.582;5.298;2024-01-25T00:25:09;15.90;;;7.15;;
33826;SDS011;20128;45.582;5.298;2024-01-25T00:27:34;18.67;;;7.32;;
33826;SDS011;20128;45.582;5.298;2024-01-25T00:30:00;18.15;;;7.20;;
33826;SDS011;20128;45.582;5.298;2024-01-25T00:32:26;13.95;;;6.47;;
33826;SDS011;20128;45.582;5.298;2024-01-25T00:34:51;12.35;;;6.70;;
33826;SDS011;20128;45.582;5.298;2024-01-25T00:37:17;13.57;;;6.00;;
33826;SDS011;20128;45.582;5.298;2024-01-25T00:39:43;11.07;;;6.18;;
33826;SDS011;20128;45.582;5.298;2024-01-25T00:42:10;14.50;;;6.22;;
33826;SDS011;20128;45.582;5.298;2024-01-25T00:44:37;13.55;;;6.35;;
33826;SDS011;20128;45.582;5.298;2024-01-25T00:47:03;23.60;;;6.65;;
33826;SDS011;20128;45.582;5.298;2024-01-25T00:49:29;12.80;;;6.28;;
33826;SDS011;20128;45.582;5.298;2024-01-25T00:51:58;15.10;;;6.68;;
33826;SDS011;20128;45.582;5.298;2024-01-25T00:54:27;14.30;;;7.28;;
33826;SDS011;20128;45.582;5.298;2024-01-25T00:56:53;15.20;;;7.18;;
33826;SDS011;20128;45.582;5.298;2024-01-25T00:59:19;11.23;;;6.68;;
33826;SDS011;20128;45.582;5.298;2024-01-25T01:01:46;13.52;;;6.10;;
33826;SDS011;20128;45.582;5.298;2024-01-25T01:04:13;14.88;;;7.32;;
33826;SDS011;20128;45.582;5.298;2024-01-25T01:06:39;11.98;;;6.25;;
33826;SDS011;20128;45.582;5.298;2024-01-25T01:09:05;12.55;;;6.65;;
33826;SDS011;20128;45.582;5.298;2024-01-25T01:11:31;12.27;;;6.40;;
33826;SDS011;20128;45.582;5.298;2024-01-25T01:13:57;11.98;;;6.32;;
33826;SDS011;20128;45.582;5.298;2024-01-25T01:16:22;11.07;;;6.60;;
33826;SDS011;20128;45.582;5.298;2024-01-25T01:18:48;10.93;;;6.15;;
33826;SDS011;20128;45.582;5.298;2024-01-25T01:21:13;13.20;;;6.85;;
33826;SDS011;20128;45.582;5.298;2024-01-25T01:23:39;12.75;;;6.03;;
33826;SDS011;20128;45.582;5.298;2024-01-25T01:26:05;12.65;;;6.63;;
33826;SDS011;20128;45.582;5.298;2024-01-25T01:28:30;14.60;;;6.25;;
33826;SDS011;20128;45.582;5.298;2024-01-25T01:30:56;13.35;;;6.00;;
33826;SDS011;20128;45.582;5.298;2024-01-25T01:33:22;10.05;;;5.13;;
33826;SDS011;20128;45.582;5.298;2024-01-25T01:35:47;12.75;;;5.68;;
33826;SDS011;20128;45.582;5.298;2024-01-25T01:38:14;12.35;;;5.68;;
33826;SDS011;20128;45.582;5.298;2024-01-25T01:40:39;12.27;;;5.65;;
33826;SDS011;20128;45.582;5.298;2024-01-25T01:43:05;11.93;;;5.70;;
33826;SDS011;20128;45.582;5.298;2024-01-25T01:45:31;12.23;;;5.80;;
33826;SDS011;20128;45.582;5.298;2024-01-25T01:47:56;17.77;;;5.90;;
33826;SDS011;20128;45.582;5.298;2024-01-25T01:50:23;16.02;;;6.78;;
33826;SDS011;20128;45.582;5.298;2024-01-25T01:52:49;11.40;;;6.13;;
33826;SDS011;20128;45.582;5.298;2024-01-25T01:55:18;19.80;;;6.43;;
33826;SDS011;20128;45.582;5.298;2024-01-25T01:57:44;17.38;;;6.78;;
33826;SDS011;20128;45.582;5.298;2024-01-25T02:00:11;13.23;;;6.72;;
33826;SDS011;20128;45.582;5.298;2024-01-25T02:02:40;14.18;;;7.53;;
33826;SDS011;20128;45.582;5.298;2024-01-25T02:05:06;15.93;;;8.00;;
33826;SDS011;20128;45.582;5.298;2024-01-25T02:07:32;21.08;;;7.88;;
33826;SDS011;20128;45.582;5.298;2024-01-25T02:09:58;21.80;;;9.77;;
33826;SDS011;20128;45.582;5.298;2024-01-25T02:12:23;14.25;;;7.53;;
33826;SDS011;20128;45.582;5.298;2024-01-25T02:14:49;15.05;;;7.20;;
33826;SDS011;20128;45.582;5.298;2024-01-25T02:17:14;19.48;;;7.75;;
33826;SDS011;20128;45.582;5.298;2024-01-25T02:19:40;15.82;;;8.00;;
33826;SDS011;20128;45.582;5.298;2024-01-25T02:22:06;17.85;;;7.65;;
33826;SDS011;20128;45.582;5.298;2024-01-25T02:24:32;14.57;;;7.88;;
33826;SDS011;20128;45.582;5.298;2024-01-25T02:26:57;13.75;;;7.68;;
33826;SDS011;20128;45.582;5.298;2024-01-25T02:29:23;15.07;;;8.27;;
33826;SDS011;20128;45.582;5.298;2024-01-25T02:31:49;15.80;;;8.00;;
33826;SDS011;20128;45.582;5.298;2024-01-25T02:34:14;17.73;;;7.68;;
33826;SDS011;20128;45.582;5.298;2024-01-25T02:36:40;15.80;;;7.03;;
33826;SDS011;20128;45.582;5.298;2024-01-25T02:39:05;15.82;;;7.28;;
33826;SDS011;20128;45.582;5.298;2024-01-25T02:41:34;15.98;;;7.70;;
33826;SDS011;20128;45.582;5.298;2024-01-25T02:44:00;16.02;;;6.70;;
33826;SDS011;20128;45.582;5.298;2024-01-25T02:46:26;18.65;;;7.32;;
33826;SDS011;20128;45.582;5.298;2024-01-25T02:48:51;13.73;;;6.55;;
33826;SDS011;20128;45.582;5.298;2024-01-25T02:51:17;14.15;;;6.35;;
33826;SDS011;20128;45.582;5.298;2024-01-25T02:53:42;12.95;;;6.13;;
33826;SDS011;20128;45.582;5.298;2024-01-25T02:56:08;16.25;;;7.13;;
33826;SDS011;20128;45.582;5.298;2024-01-25T02:58:34;16.85;;;6.95;;
33826;SDS011;20128;45.582;5.298;2024-01-25T03:00:59;18.33;;;6.60;;
33826;SDS011;20128;45.582;5.298;2024-01-25T03:03:25;11.80;;;6.43;;
33826;SDS011;20128;45.582;5.298;2024-01-25T03:05:53;17.05;;;6.18;;
33826;SDS011;20128;45.582;5.298;2024-01-25T03:08:19;12.27;;;5.30;;
33826;SDS011;20128;45.582;5.298;2024-01-25T03:10:46;12.00;;;5.63;;
33826;SDS011;20128;45.582;5.298;2024-01-25T03:13:14;12.80;;;5.63;;
33826;SDS011;20128;45.582;5.298;2024-01-25T03:15:41;16.50;;;6.18;;
33826;SDS011;20128;45.582;5.298;2024-01-25T03:18:07;15.75;;;6.55;;
33826;SDS011;20128;45.582;5.298;2024-01-25T03:20:33;11.30;;;5.70;;
33826;SDS011;20128;45.582;5.298;2024-01-25T03:22:58;10.40;;;5.65;;
33826;SDS011;20128;45.582;5.298;2024-01-25T03:25:24;10.93;;;6.13;;
33826;SDS011;20128;45.582;5.298;2024-01-25T03:27:50;16.75;;;6.93;;
33826;SDS011;20128;45.582;5.298;2024-01-25T03:30:15;15.32;;;6.38;;
33826;SDS011;20128;45.582;5.298;2024-01-25T03:32:41;14.20;;;6.03;;
33826;SDS011;20128;45.582;5.298;2024-01-25T03:35:07;13.75;;;6.72;;
33826;SDS011;20128;45.582;5.298;2024-01-25T03:37:32;13.93;;;5.60;;
33826;SDS011;20128;45.582;5.298;2024-01-25T03:39:58;9.80;;;5.47;;
33826;SDS011;20128;45.582;5.298;2024-01-25T03:42:24;9.27;;;5.82;;
33826;SDS011;20128;45.582;5.298;2024-01-25T03:44:49;18.05;;;6.25;;
33826;SDS011;20128;45.582;5.298;2024-01-25T03:47:15;15.13;;;5.72;;
33826;SDS011;20128;45.582;5.298;2024-01-25T03:49:40;13.82;;;6.68;;
33826;SDS011;20128;45.582;5.298;2024-01-25T03:52:06;13.68;;;6.05;;
33826;SDS011;20128;45.582;5.298;2024-01-25T03:54:32;12.20;;;6.20;;
33826;SDS011;20128;45.582;5.298;2024-01-25T03:56:57;11.98;;;6.68;;
33826;SDS011;20128;45.582;5.298;2024-01-25T03:59:23;14.02;;;5.90;;
33826;SDS011;20128;45.582;5.298;2024-01-25T04:01:48;10.30;;;5.60;;
33826;SDS011;20128;45.582;5.298;2024-01-25T04:04:14;15.68;;;6.75;;
33826;SDS011;20128;45.582;5.298;2024-01-25T04:06:41;11.85;;;6.50;;
33826;SDS011;20128;45.582;5.298;2024-01-25T04:09:13;17.58;;;6.43;;
33826;SDS011;20128;45.582;5.298;2024-01-25T04:11:40;12.73;;;6.20;;
33826;SDS011;20128;45.582;5.298;2024-01-25T04:14:06;13.57;;;7.10;;
33826;SDS011;20128;45.582;5.298;2024-01-25T04:16:32;15.07;;;6.43;;
33826;SDS011;20128;45.582;5.298;2024-01-25T04:18:58;16.33;;;6.15;;
33826;SDS011;20128;45.582;5.298;2024-01-25T04:21:24;10.98;;;5.85;;
33826;SDS011;20128;45.582;5.298;2024-01-25T04:23:49;11.52;;;6.35;;
33826;SDS011;20128;45.582;5.298;2024-01-25T04:26:15;13.80;;;5.85;;
33826;SDS011;20128;45.582;5.298;2024-01-25T04:28:43;13.35;;;5.88;;
33826;SDS011;20128;45.582;5.298;2024-01-25T04:31:09;12.98;;;6.00;;
33826;SDS011;20128;45.582;5.298;2024-01-25T04:33:35;17.52;;;5.72;;
33826;SDS011;20128;45.582;5.298;2024-01-25T04:36:03;19.20;;;6.13;;
33826;SDS011;20128;45.582;5.298;2024-01-25T04:38:28;11.40;;;6.63;;
33826;SDS011;20128;45.582;5.298;2024-01-25T04:40:54;11.20;;;5.78;;
33826;SDS011;20128;45.582;5.298;2024-01-25T04:43:20;13.20;;;5.75;;
33826;SDS011;20128;45.582;5.298;2024-01-25T04:45:45;14.32;;;6.38;;
33826;SDS011;20128;45.582;5.298;2024-01-25T04:48:11;15.15;;;6.75;;
33826;SDS011;20128;45.582;5.298;2024-01-25T04:50:36;12.57;;;6.40;;
33826;SDS011;20128;45.582;5.298;2024-01-25T04:53:04;19.52;;;6.80;;
33826;SDS011;20128;45.582;5.298;2024-01-25T04:55:29;11.05;;;6.18;;
33826;SDS011;20128;45.582;5.298;2024-01-25T04:57:55;16.77;;;6.32;;
33826;SDS011;20128;45.582;5.298;2024-01-25T05:00:22;16.77;;;5.97;;
33826;SDS011;20128;45.582;5.298;2024-01-25T05:02:47;16.83;;;5.88;;
33826;SDS011;20128;45.582;5.298;2024-01-25T05:05:14;12.50;;;6.00;;
33826;SDS011;20128;45.582;5.298;2024-01-25T05:07:40;13.80;;;5.85;;
33826;SDS011;20128;45.582;5.298;2024-01-25T05:10:06;14.35;;;5.57;;
33826;SDS011;20128;45.582;5.298;2024-01-25T05:12:32;19.75;;;6.57;;
33826;SDS011;20128;45.582;5.298;2024-01-25T05:14:58;13.93;;;6.40;;
33826;SDS011;20128;45.582;5.298;2024-01-25T05:17:24;17.02;;;7.20;;
33826;SDS011;20128;45.582;5.298;2024-01-25T05:19:50;12.75;;;5.95;;
33826;SDS011;20128;45.582;5.298;2024-01-25T05:22:15;14.13;;;7.28;;
33826;SDS011;20128;45.582;5.298;2024-01-25T05:24:41;14.98;;;6.88;;
33826;SDS011;20128;45.582;5.298;2024-01-25T05:27:07;11.82;;;6.43;;
33826;SDS011;20128;45.582;5.298;2024-01-25T05:29:33;9.85;;;5.93;;
33826;SDS011;20128;45.582;5.298;2024-01-25T05:31:58;14.35;;;6.70;;
33826;SDS011;20128;45.582;5.298;2024-01-25T05:34:24;13.27;;;6.90;;
33826;SDS011;20128;45.582;5.298;2024-01-25T05:36:50;18.05;;;6.97;;
33826;SDS011;20128;45.582;5.298;2024-01-25T05:39:16;11.63;;;5.85;;
33826;SDS011;20128;45.582;5.298;2024-01-25T05:41:42;13.10;;;7.05;;
33826;SDS011;20128;45.582;5.298;2024-01-25T05:44:10;10.93;;;6.45;;
33826;SDS011;20128;45.582;5.298;2024-01-25T05:46:36;19.90;;;9.30;;
33826;SDS011;20128;45.582;5.298;2024-01-25T05:49:02;20.52;;;8.57;;
33826;SDS011;20128;45.582;5.298;2024-01-25T05:51:27;19.90;;;8.73;;
33826;SDS011;20128;45.582;5.298;2024-01-25T05:53:53;17.83;;;8.23;;
33826;SDS011;20128;45.582;5.298;2024-01-25T05:56:19;15.68;;;8.15;;
33826;SDS011;20128;45.582;5.298;2024-01-25T05:58:44;20.00;;;8.70;;
33826;SDS011;20128;45.582;5.298;2024-01-25T06:01:10;27.92;;;10.65;;
33826;SDS011;20128;45.582;5.298;2024-01-25T06:03:36;22.20;;;11.05;;
33826;SDS011;20128;45.582;5.298;2024-01-25T06:06:01;25.05;;;11.30;;
33826;SDS011;20128;45.582;5.298;2024-01-25T06:08:27;24.60;;;10.65;;
33826;SDS011;20128;45.582;5.298;2024-01-25T06:10:53;28.52;;;11.40;;
33826;SDS011;20128;45.582;5.298;2024-01-25T06:13:19;24.45;;;10.88;;
33826;SDS011;20128;45.582;5.298;2024-01-25T06:15:44;32.35;;;12.68;;
33826;SDS011;20128;45.582;5.298;2024-01-25T06:18:10;24.60;;;13.85;;
33826;SDS011;20128;45.582;5.298;2024-01-25T06:20:35;26.85;;;12.07;;
33826;SDS011;20128;45.582;5.298;2024-01-25T06:23:01;26.45;;;12.10;;
33826;SDS011;20128;45.582;5.298;2024-01-25T06:25:26;32.60;;;15.02;;
33826;SDS011;20128;45.582;5.298;2024-01-25T06:27:55;31.20;;;13.20;;
33826;SDS011;20128;45.582;5.298;2024-01-25T06:30:22;23.83;;;12.13;;
33826;SDS011;20128;45.582;5.298;2024-01-25T06:32:48;31.73;;;12.10;;
33826;SDS011;20128;45.582;5.298;2024-01-25T06:35:13;25.25;;;11.43;;
33826;SDS011;20128;45.582;5.298;2024-01-25T06:37:39;31.13;;;13.00;;
33826;SDS011;20128;45.582;5.298;2024-01-25T06:40:05;25.90;;;12.57;;
33826;SDS011;20128;45.582;5.298;2024-01-25T06:42:31;30.88;;;12.27;;
33826;SDS011;20128;45.582;5.298;2024-01-25T06:44:57;27.30;;;11.13;;
33826;SDS011;20128;45.582;5.298;2024-01-25T06:47:22;22.75;;;12.18;;
33826;SDS011;20128;45.582;5.298;2024-01-25T06:49:48;23.33;;;11.48;;
33826;SDS011;20128;45.582;5.298;2024-01-25T06:52:16;21.80;;;10.52;;
33826;SDS011;20128;45.582;5.298;2024-01-25T06:54:42;19.65;;;10.35;;
33826;SDS011;20128;45.582;5.298;2024-01-25T06:57:08;26.48;;;11.65;;
33826;SDS011;20128;45.582;5.298;2024-01-25T06:59:33;28.20;;;13.30;;
33826;SDS011;20128;45.582;5.298;2024-01-25T07:01:59;34.50;;;13.38;;
33826;SDS011;20128;45.582;5.298;2024-01-25T07:04:27;27.95;;;14.20;;
33826;SDS011;20128;45.582;5.298;2024-01-25T07:06:53;28.30;;;14.13;;
33826;SDS011;20128;45.582;5.298;2024-01-25T07:09:18;29.85;;;13.88;;
33826;SDS011;20128;45.582;5.298;2024-01-25T07:11:44;28.83;;;14.55;;
33826;SDS011;20128;45.582;5.298;2024-01-25T07:14:10;28.98;;;12.48;;
33826;SDS011;20128;45.582;5.298;2024-01-25T07:16:36;24.38;;;11.02;;
33826;SDS011;20128;45.582;5.298;2024-01-25T07:19:01;23.48;;;11.13;;
33826;SDS011;20128;45.582;5.298;2024-01-25T07:21:28;19.63;;;8.80;;
33826;SDS011;20128;45.582;5.298;2024-01-25T07:23:57;23.80;;;10.00;;
33826;SDS011;20128;45.582;5.298;2024-01-25T07:26:24;16.23;;;9.32;;
33826;SDS011;20128;45.582;5.298;2024-01-25T07:28:50;21.45;;;10.40;;
33826;SDS011;20128;45.582;5.298;2024-01-25T07:31:19;20.15;;;9.48;;
33826;SDS011;20128;45.582;5.298;2024-01-25T07:33:45;28.58;;;9.57;;
33826;SDS011;20128;45.582;5.298;2024-01-25T07:36:10;28.10;;;9.00;;
33826;SDS011;20128;45.582;5.298;2024-01-25T07:38:36;17.38;;;8.25;;
33826;SDS011;20128;45.582;5.298;2024-01-25T07:41:02;19.38;;;9.38;;
33826;SDS011;20128;45.582;5.298;2024-01-25T07:43:27;22.23;;;9.77;;
33826;SDS011;20128;45.582;5.298;2024-01-25T07:45:53;16.55;;;8.48;;
33826;SDS011;20128;45.582;5.298;2024-01-25T07:48:18;20.40;;;10.20;;
33826;SDS011;20128;45.582;5.298;2024-01-25T07:50:44;19.77;;;11.23;;
33826;SDS011;20128;45.582;5.298;2024-01-25T07:53:10;27.88;;;11.43;;
33826;SDS011;20128;45.582;5.298;2024-01-25T07:55:37;25.02;;;10.93;;
33826;SDS011;20128;45.582;5.298;2024-01-25T07:58:02;26.42;;;10.68;;
33826;SDS011;20128;45.582;5.298;2024-01-25T08:00:28;20.67;;;10.85;;
33826;SDS011;20128;45.582;5.298;2024-01-25T08:02:54;21.77;;;10.40;;
33826;SDS011;20128;45.582;5.298;2024-01-25T08:05:20;18.27;;;8.88;;
33826;SDS011;20128;45.582;5.298;2024-01-25T08:07:45;16.35;;;9.77;;
33826;SDS011;20128;45.582;5.298;2024-01-25T08:10:12;23.63;;;9.43;;
33826;SDS011;20128;45.582;5.298;2024-01-25T08:12:38;15.40;;;9.35;;
33826;SDS011;20128;45.582;5.298;2024-01-25T08:15:05;25.58;;;9.63;;
33826;SDS011;20128;45.582;5.298;2024-01-25T08:17:31;19.27;;;9.82;;
33826;SDS011;20128;45.582;5.298;2024-01-25T08:19:57;21.40;;;10.05;;
33826;SDS011;20128;45.582;5.298;2024-01-25T08:22:22;19.15;;;9.32;;
33826;SDS011;20128;45.582;5.298;2024-01-25T08:24:48;22.52;;;9.85;;
33826;SDS011;20128;45.582;5.298;2024-01-25T08:27:13;19.45;;;10.13;;
33826;SDS011;20128;45.582;5.298;2024-01-25T08:29:39;22.30;;;10.30;;
33826;SDS011;20128;45.582;5.298;2024-01-25T08:32:06;22.80;;;10.05;;
33826;SDS011;20128;45.582;5.298;2024-01-25T08:34:31;22.00;;;10.73;;
33826;SDS011;20128;45.582;5.298;2024-01-25T08:36:57;29.75;;;11.32;;
33826;SDS011;20128;45.582;5.298;2024-01-25T08:39:22;22.52;;;10.30;;
33826;SDS011;20128;45.582;5.298;2024-01-25T08:41:48;21.50;;;10.85;;
33826;SDS011;20128;45.582;5.298;2024-01-25T08:44:15;22.02;;;10.43;;
33826;SDS011;20128;45.582;5.298;2024-01-25T08:46:41;41.17;;;12.85;;
33826;SDS011;20128;45.582;5.298;2024-01-25T08:49:08;27.73;;;12.73;;
33826;SDS011;20128;45.582;5.298;2024-01-25T08:51:35;31.15;;;12.30;;
33826;SDS011;20128;45.582;5.298;2024-01-25T08:54:01;34.25;;;12.30;;
33826;SDS011;20128;45.582;5.298;2024-01-25T08:56:28;32.20;;;13.88;;
33826;SDS011;20128;45.582;5.298;2024-01-25T08:58:54;27.05;;;14.30;;
33826;SDS011;20128;45.582;5.298;2024-01-25T09:01:19;33.08;;;11.73;;
33826;SDS011;20128;45.582;5.298;2024-01-25T09:03:45;22.15;;;9.75;;
33826;SDS011;20128;45.582;5.298;2024-01-25T09:06:12;22.27;;;10.15;;
33826;SDS011;20128;45.582;5.298;2024-01-25T09:08:40;25.30;;;10.75;;
33826;SDS011;20128;45.582;5.298;2024-01-25T09:11:05;23.60;;;9.45;;
33826;SDS011;20128;45.582;5.298;2024-01-25T09:13:31;18.38;;;8.70;;
33826;SDS011;20128;45.582;5.298;2024-01-25T09:15:57;26.50;;;9.27;;
33826;SDS011;20128;45.582;5.298;2024-01-25T09:18:23;22.25;;;9.70;;
33826;SDS011;20128;45.582;5.298;2024-01-25T09:20:49;19.02;;;9.50;;
33826;SDS011;20128;45.582;5.298;2024-01-25T09:23:15;24.38;;;8.57;;
33826;SDS011;20128;45.582;5.298;2024-01-25T09:25:41;20.77;;;9.02;;
33826;SDS011;20128;45.582;5.298;2024-01-25T09:28:07;24.50;;;8.57;;
33826;SDS011;20128;45.582;5.298;2024-01-25T09:30:33;22.27;;;9.30;;
33826;SDS011;20128;45.582;5.298;2024-01-25T09:32:59;20.30;;;9.00;;
33826;SDS011;20128;45.582;5.298;2024-01-25T09:35:24;23.35;;;9.40;;
33826;SDS011;20128;45.582;5.298;2024-01-25T09:37:50;15.95;;;8.35;;
33826;SDS011;20128;45.582;5.298;2024-01-25T09:40:17;24.63;;;8.73;;
33826;SDS011;20128;45.582;5.298;2024-01-25T09:42:46;16.13;;;7.97;;
33826;SDS011;20128;45.582;5.298;2024-01-25T09:45:15;19.67;;;9.05;;
33826;SDS011;20128;45.582;5.298;2024-01-25T09:47:43;19.35;;;8.80;;
33826;SDS011;20128;45.582;5.298;2024-01-25T09:50:11;18.02;;;7.75;;
33826;SDS011;20128;45.582;5.298;2024-01-25T09:52:37;14.57;;;6.38;;
33826;SDS011;20128;45.582;5.298;2024-01-25T09:55:05;19.77;;;6.65;;
33826;SDS011;20128;45.582;5.298;2024-01-25T09:57:32;22.63;;;7.45;;
33826;SDS011;20128;45.582;5.298;2024-01-25T10:00:03;21.90;;;7.43;;
33826;SDS011;20128;45.582;5.298;2024-01-25T10:02:30;21.80;;;8.98;;
33826;SDS011;20128;45.582;5.298;2024-01-25T10:04:56;11.15;;;6.30;;
33826;SDS011;20128;45.582;5.298;2024-01-25T10:07:40;16.67;;;7.55;;
33826;SDS011;20128;45.582;5.298;2024-01-25T10:10:07;17.08;;;7.57;;
33826;SDS011;20128;45.582;5.298;2024-01-25T10:12:33;19.27;;;5.90;;
33826;SDS011;20128;45.582;5.298;2024-01-25T10:14:59;18.00;;;6.53;;
33826;SDS011;20128;45.582;5.298;2024-01-25T10:17:25;11.57;;;5.75;;
33826;SDS011;20128;45.582;5.298;2024-01-25T10:19:53;11.85;;;6.03;;
33826;SDS011;20128;45.582;5.298;2024-01-25T10:22:19;20.83;;;7.03;;
33826;SDS011;20128;45.582;5.298;2024-01-25T10:24:44;12.48;;;6.43;;
33826;SDS011;20128;45.582;5.298;2024-01-25T10:27:10;23.42;;;6.45;;
33826;SDS011;20128;45.582;5.298;2024-01-25T10:29:37;21.80;;;6.72;;
33826;SDS011;20128;45.582;5.298;2024-01-25T10:32:03;11.35;;;6.30;;
33826;SDS011;20128;45.582;5.298;2024-01-25T10:34:29;21.05;;;6.25;;
33826;SDS011;20128;45.582;5.298;2024-01-25T10:36:58;14.82;;;6.20;;
33826;SDS011;20128;45.582;5.298;2024-01-25T10:39:24;13.00;;;6.20;;
33826;SDS011;20128;45.582;5.298;2024-01-25T10:41:50;15.70;;;6.65;;
33826;SDS011;20128;45.582;5.298;2024-01-25T10:44:16;15.38;;;6.43;;
33826;SDS011;20128;45.582;5.298;2024-01-25T10:46:46;14.70;;;6.35;;
33826;SDS011;20128;45.582;5.298;2024-01-25T10:49:13;12.77;;;6.22;;
33826;SDS011;20128;45.582;5.298;2024-01-25T10:51:40;16.08;;;6.55;;
33826;SDS011;20128;45.582;5.298;2024-01-25T10:54:16;15.05;;;6.35;;
33826;SDS011;20128;45.582;5.298;2024-01-25T10:56:42;14.13;;;6.25;;
33826;SDS011;20128;45.582;5.298;2024-01-25T10:59:08;13.13;;;6.32;;
33826;SDS011;20128;45.582;5.298;2024-01-25T11:01:35;14.63;;;5.68;;
33826;SDS011;20128;45.582;5.298;2024-01-25T11:04:01;7.53;;;4.22;;
33826;SDS011;20128;45.582;5.298;2024-01-25T11:06:27;10.32;;;4.25;;
33826;SDS011;20128;45.582;5.298;2024-01-25T11:09:06;12.82;;;4.47;;
33826;SDS011;20128;45.582;5.298;2024-01-25T11:11:32;11.57;;;4.18;;
33826;SDS011;20128;45.582;5.298;2024-01-25T11:14:00;8.95;;;3.63;;
33826;SDS011;20128;45.582;5.298;2024-01-25T11:16:29;12.18;;;3.75;;
33826;SDS011;20128;45.582;5.298;2024-01-25T11:18:57;7.88;;;3.15;;
33826;SDS011;20128;45.582;5.298;2024-01-25T11:21:53;10.75;;;3.78;;
33826;SDS011;20128;45.582;5.298;2024-01-25T11:24:20;10.68;;;3.15;;
33826;SDS011;20128;45.582;5.298;2024-01-25T11:26:51;9.32;;;3.33;;
33826;SDS011;20128;45.582;5.298;2024-01-25T11:29:19;10.73;;;2.80;;
33826;SDS011;20128;45.582;5.298;2024-01-25T11:31:47;11.25;;;2.53;;
33826;SDS011;20128;45.582;5.298;2024-01-25T11:34:14;4.80;;;2.20;;
33826;SDS011;20128;45.582;5.298;2024-01-25T11:36:41;10.30;;;2.85;;
33826;SDS011;20128;45.582;5.298;2024-01-25T11:39:11;7.20;;;2.78;;
33826;SDS011;20128;45.582;5.298;2024-01-25T11:41:37;7.78;;;3.00;;
33826;SDS011;20128;45.582;5.298;2024-01-25T11:44:03;12.95;;;3.78;;
33826;SDS011;20128;45.582;5.298;2024-01-25T11:46:30;6.05;;;2.72;;
33826;SDS011;20128;45.582;5.298;2024-01-25T11:48:57;10.52;;;3.55;;
33826;SDS011;20128;45.582;5.298;2024-01-25T11:51:23;5.85;;;2.65;;
33826;SDS011;20128;45.582;5.298;2024-01-25T11:53:49;20.90;;;10.15;;
33826;SDS011;20128;45.582;5.298;2024-01-25T11:56:16;6.22;;;3.22;;
33826;SDS011;20128;45.582;5.298;2024-01-25T11:58:46;4.50;;;2.38;;
33826;SDS011;20128;45.582;5.298;2024-01-25T12:01:12;6.65;;;2.05;;
33826;SDS011;20128;45.582;5.298;2024-01-25T12:03:39;5.32;;;1.77;;
33826;SDS011;20128;45.582;5.298;2024-01-25T12:06:06;4.53;;;1.48;;
33826;SDS011;20128;45.582;5.298;2024-01-25T12:08:34;3.50;;;1.80;;
33826;SDS011;20128;45.582;5.298;2024-01-25T12:11:07;4.75;;;1.30;;
33826;SDS011;20128;45.582;5.298;2024-01-25T12:13:43;2.28;;;1.20;;
33826;SDS011;20128;45.582;5.298;2024-01-25T12:16:09;4.07;;;1.33;;
33826;SDS011;20128;45.582;5.298;2024-01-25T12:18:36;3.53;;;1.55;;
33826;SDS011;20128;45.582;5.298;2024-01-25T12:21:03;3.15;;;1.40;;
33826;SDS011;20128;45.582;5.298;2024-01-25T12:23:31;8.27;;;1.30;;
33826;SDS011;20128;45.582;5.298;2024-01-25T12:26:01;5.32;;;1.63;;
33826;SDS011;20128;45.582;5.298;2024-01-25T12:28:29;3.88;;;1.65;;
33826;SDS011;20128;45.582;5.298;2024-01-25T12:30:56;3.33;;;1.50;;
33826;SDS011;20128;45.582;5.298;2024-01-25T12:33:22;11.55;;;1.83;;
33826;SDS011;20128;45.582;5.298;2024-01-25T12:35:48;3.78;;;1.60;;
33826;SDS011;20128;45.582;5.298;2024-01-25T12:38:13;3.15;;;2.20;;
33826;SDS011;20128;45.582;5.298;2024-01-25T12:40:41;5.05;;;2.08;;
33826;SDS011;20128;45.582;5.298;2024-01-25T12:43:08;2.92;;;1.90;;
33826;SDS011;20128;45.582;5.298;2024-01-25T12:45:33;13.13;;;1.77;;
33826;SDS011;20128;45.582;5.298;2024-01-25T12:47:59;6.53;;;1.75;;
33826;SDS011;20128;45.582;5.298;2024-01-25T12:50:25;7.25;;;2.55;;
33826;SDS011;20128;45.582;5.298;2024-01-25T12:52:50;4.32;;;2.33;;
33826;SDS011;20128;45.582;5.298;2024-01-25T12:55:16;7.78;;;2.50;;
33826;SDS011;20128;45.582;5.298;2024-01-25T12:57:42;5.40;;;2.53;;
33826;SDS011;20128;45.582;5.298;2024-01-25T13:00:07;4.22;;;1.67;;
33826;SDS011;20128;45.582;5.298;2024-01-25T13:02:33;9.38;;;2.58;;
33826;SDS011;20128;45.582;5.298;2024-01-25T13:04:59;4.75;;;2.30;;
33826;SDS011;20128;45.582;5.298;2024-01-25T13:07:25;13.15;;;2.38;;
33826;SDS011;20128;45.582;5.298;2024-01-25T13:09:50;5.53;;;1.90;;
33826;SDS011;20128;45.582;5.298;2024-01-25T13:12:16;4.15;;;1.90;;
33826;SDS011;20128;45.582;5.298;2024-01-25T13:14:41;9.07;;;2.08;;
33826;SDS011;20128;45.582;5.298;2024-01-25T13:17:07;10.32;;;2.72;;
33826;SDS011;20128;45.582;5.298;2024-01-25T13:19:33;3.92;;;1.88;;
33826;SDS011;20128;45.582;5.298;2024-01-25T13:21:59;8.00;;;1.67;;
33826;SDS011;20128;45.582;5.298;2024-01-25T13:24:25;6.63;;;1.90;;
33826;SDS011;20128;45.582;5.298;2024-01-25T13:26:50;4.68;;;1.70;;
33826;SDS011;20128;45.582;5.298;2024-01-25T13:29:16;4.75;;;1.60;;
33826;SDS011;20128;45.582;5.298;2024-01-25T13:31:42;7.95;;;2.13;;
33826;SDS011;20128;45.582;5.298;2024-01-25T13:34:08;5.05;;;1.90;;
33826;SDS011;20128;45.582;5.298;2024-01-25T13:36:33;3.25;;;1.65;;
33826;SDS011;20128;45.582;5.298;2024-01-25T13:38:59;4.57;;;1.20;;
33826;SDS011;20128;45.582;5.298;2024-01-25T13:41:26;6.57;;;2.60;;
33826;SDS011;20128;45.582;5.298;2024-01-25T13:43:52;11.68;;;2.58;;
33826;SDS011;20128;45.582;5.298;2024-01-25T13:46:18;4.75;;;1.10;;
33826;SDS011;20128;45.582;5.298;2024-01-25T13:48:43;2.85;;;0.95;;
33826;SDS011;20128;45.582;5.298;2024-01-25T13:51:10;6.45;;;1.20;;
33826;SDS011;20128;45.582;5.298;2024-01-25T13:53:37;3.47;;;1.08;;
33826;SDS011;20128;45.582;5.298;2024-01-25T13:56:02;2.75;;;1.17;;
33826;SDS011;20128;45.582;5.298;2024-01-25T13:58:28;7.53;;;1.23;;
33826;SDS011;20128;45.582;5.298;2024-01-25T14:00:54;2.95;;;1.05;;
33826;SDS011;20128;45.582;5.298;2024-01-25T14:03:20;3.17;;;1.42;;
33826;SDS011;20128;45.582;5.298;2024-01-25T14:05:45;2.50;;;1.30;;
33826;SDS011;20128;45.582;5.298;2024-01-25T14:08:11;4.28;;;1.60;;
33826;SDS011;20128;45.582;5.298;2024-01-25T14:10:36;5.40;;;1.77;;
33826;SDS011;20128;45.582;5.298;2024-01-25T14:13:02;9.20;;;1.30;;
33826;SDS011;20128;45.582;5.298;2024-01-25T14:15:28;2.95;;;1.10;;
33826;SDS011;20128;45.582;5.298;2024-01-25T14:17:54;3.67;;;0.80;;
33826;SDS011;20128;45.582;5.298;2024-01-25T14:20:19;3.22;;;0.73;;
33826;SDS011;20128;45.582;5.298;2024-01-25T14:22:45;5.10;;;1.58;;
33826;SDS011;20128;45.582;5.298;2024-01-25T14:25:10;1.73;;;0.68;;
33826;SDS011;20128;45.582;5.298;2024-01-25T14:27:37;3.15;;;0.70;;
33826;SDS011;20128;45.582;5.298;2024-01-25T14:30:03;6.00;;;0.90;;